Terminal Aerodrome Forecast
Issued by NWS

Home | Current Version | Previous Version | Graphics & Text | Print | Product List | Glossary On
Versions: 1 2 3 4 5 6 7 8 9 10 11 12 13 14 15
000
FTUS43 KPAH 310520
TAFCGI
TAF
KCGI 310520Z 3106/0106 00000KT P6SM SCT100 BKN250
     FM311200 12006KT P6SM SCT050 BKN100
     FM010100 VRB02KT P6SM FEW050 SCT100=

USA.gov is the U.S. government's official web portal to all federal, state and local government web resources and services.